• Join FlightAware (Why Join?)
  • Login
  • US Flag 
04:27AM EDT


 

Airport Tracker/Info


-or-


 

Live Flight TrackerFlight Track Log ✈ RLI811 ✈ 29-Jul-2013 ✈ KDXR - KHYA

Flight Track Log - Related Links

Times and Time Zones

All times are in EDT time to prevent confusion due to time zone crossing. See the RLI811 flight status page for this flight to view local times or setup timezone preferences in your user account.

Time Position Orientation Groundspeed Altitude Reporting Facility
EDT Latitude Longitude Course Direction KTS MPH feet Rate Location/Type
05:35AM 41.4694 -73.0386 82° East 203 234 6,900  Level Boston Center
05:36AM 41.4925 -72.9694 66° East 203 234 6,900  Level Boston Center
05:37AM 41.5178 -72.9003 64° Northeast 207 238 7,000  Climbing Boston Center
05:38AM 41.5411 -72.8339 65° Northeast 207 238 7,000  Level Boston Center
05:39AM 41.5622 -72.7592 69° East 207 238 7,000  Level Boston Center
05:40AM 41.4748 -72.4782 82° East  Level Estimated
05:40AM 41.5811 -72.6844 71° East 209 241 7,000  Level Boston Center
05:41AM 41.6083 -72.6150 62° Northeast 209 241 7,000  Level Boston Center
05:42AM 41.6333 -72.5456 64° Northeast 208 239 7,000 -60 Level Boston Center
05:43AM 41.6458 -72.4733 77° East 204 235 6,900  Descending Boston Center
05:44AM 41.6500 -72.3956 86° East 202 232 7,000  Climbing Boston Center
05:45AM 41.6522 -72.3233 88° East 202 232 7,000  Level Boston Center
05:45AM 41.6606 -72.2650 79° East 202 232 7,000  Level Boston Center
05:46AM 41.6583 -72.2344 96° East 202 232 7,000  Level Boston Center
05:47AM 41.6664 -72.1511 83° East 202 232 7,000  Level Boston Center
05:48AM 41.6725 -72.0733 84° East 207 238 7,000  Level Boston Center
05:49AM 41.6783 -71.9869 85° East 207 238 7,000  Level Boston Center
05:50AM 41.6822 -71.9119 86° East 208 239 7,000  Level Boston Center
05:51AM 41.6881 -71.8369 84° East 206 237 7,000  Level Boston Center
05:52AM 41.6939 -71.7533 85° East 207 238 7,000  Level Boston Center
05:53AM 41.6997 -71.6783 84° East 207 238 7,000  Level Boston Center
05:54AM 41.7033 -71.6031 86° East 206 237 7,000  Level Boston Center
05:55AM 41.7089 -71.5253 85° East 205 236 7,000  Level Boston Center
05:56AM 41.7144 -71.4472 85° East 206 237 7,000  Level Boston Center
05:57AM 41.7117 -71.3722 93° East 191 220 7,000  Level Boston Center
05:58AM 41.7089 -71.2972 93° East 204 235 7,000  Level Boston Center
05:59AM 41.7061 -71.2222 93° East 201 231 7,000 -240 Level Boston Center
06:00AM 41.7011 -71.1472 95° East 207 238 6,600 -420 Descending Boston Center
06:02AM 41.6957 -71.0611 95° East  Level FlightAware Approximate
06:09AM 41.6753 -70.6196 98° East  Level FlightAware Approximate
06:10AM 41.6690 -70.5569 98° East  Level FlightAware Approximate
06:11AM 41.6667 -70.4939 90° East  Level FlightAware Approximate
06:12AM 41.6667 -70.4307 90° East  Level FlightAware Approximate
06:13AM 41.6667 -70.3674 90° East  Level FlightAware Approximate
06:14AM 41.6667 -70.3042 90° East  Level FlightAware Approximate
06:15AM 41.6693 -70.2804 90° East  Level Estimated
06:16AM 41.6693 -70.2804 90° East  Level Estimated
06:17AM 41.6693 -70.2804 90° East  Level Estimated
06:18AM 41.6693 -70.2804 90° East  Level Estimated
06:19AM 41.6693 -70.2804 90° East  Level Estimated
06:20AM 41.6693 -70.2804 90° East  Level Estimated